createdAt,value
2018-11-05T00:01:50.705Z,14.50
2018-11-05T00:04:18.898Z,14.10
2018-11-05T00:06:47.072Z,17.17
2018-11-05T00:09:15.166Z,15.13
2018-11-05T00:11:43.244Z,13.72
2018-11-05T00:14:11.334Z,14.47
2018-11-05T00:16:39.505Z,13.75
2018-11-05T00:19:07.741Z,12.65
2018-11-05T00:21:35.890Z,17.48
2018-11-05T00:24:04.274Z,18.48
2018-11-05T00:26:32.357Z,13.20
2018-11-05T00:29:00.450Z,11.63
2018-11-05T00:31:28.538Z,14.10
2018-11-05T00:33:56.613Z,12.90
2018-11-05T00:36:24.718Z,12.53
2018-11-05T00:38:52.899Z,12.35
2018-11-05T00:41:20.973Z,11.43
2018-11-05T00:43:49.059Z,11.40
2018-11-05T00:46:17.174Z,13.60
2018-11-05T00:48:45.334Z,12.85
2018-11-05T00:51:13.418Z,15.15
2018-11-05T00:53:41.493Z,15.08
2018-11-05T00:56:09.721Z,14.10
2018-11-05T00:58:37.861Z,14.03
2018-11-05T01:01:06.186Z,12.58
2018-11-05T01:03:34.347Z,13.38
2018-11-05T01:06:02.434Z,14.53
2018-11-05T01:08:30.534Z,13.62
2018-11-05T01:10:58.609Z,13.55
2018-11-05T01:13:26.681Z,13.72
2018-11-05T01:15:54.782Z,13.25
2018-11-05T01:18:22.858Z,14.43
2018-11-05T01:20:51.001Z,13.28
2018-11-05T01:23:19.026Z,13.62
2018-11-05T01:25:47.121Z,12.70
2018-11-05T01:28:15.243Z,17.90
2018-11-05T01:30:43.385Z,11.68
2018-11-05T01:33:11.468Z,14.03
2018-11-05T01:35:39.562Z,13.95
2018-11-05T01:38:07.730Z,14.95
2018-11-05T01:40:35.811Z,15.18
2018-11-05T01:43:03.905Z,13.25
2018-11-05T01:45:32.015Z,12.68
2018-11-05T01:48:00.192Z,15.05
2018-11-05T01:50:28.362Z,16.90
2018-11-05T01:52:56.458Z,13.10
2018-11-05T01:55:24.631Z,14.68
2018-11-05T01:57:52.730Z,14.05
2018-11-05T02:00:20.906Z,13.10
2018-11-05T02:02:48.998Z,12.98
2018-11-05T02:05:17.073Z,14.30
2018-11-05T02:07:45.921Z,11.73
2018-11-05T02:10:16.331Z,16.97
2018-11-05T02:12:44.417Z,13.22
2018-11-05T02:15:12.930Z,13.50
2018-11-05T02:17:42.764Z,15.08
2018-11-05T02:20:11.458Z,14.03
2018-11-05T02:22:40.058Z,14.50
2018-11-05T02:25:09.173Z,11.75
2018-11-05T02:27:37.314Z,17.60
2018-11-05T02:30:09.167Z,14.00
2018-11-05T02:32:37.274Z,14.65
2018-11-05T02:35:06.458Z,16.15
2018-11-05T02:37:34.570Z,13.55
2018-11-05T02:40:02.829Z,12.73
2018-11-05T02:42:30.946Z,15.35
2018-11-05T02:44:59.021Z,13.28
2018-11-05T02:47:27.109Z,12.25
2018-11-05T02:49:55.210Z,13.03
2018-11-05T02:52:23.369Z,12.07
2018-11-05T02:54:51.499Z,14.98
2018-11-05T02:57:19.650Z,12.47
2018-11-05T02:59:47.737Z,12.05
2018-11-05T03:02:15.813Z,13.32
2018-11-05T03:04:43.921Z,12.85
2018-11-05T03:07:12.090Z,15.20
2018-11-05T03:09:40.174Z,12.28
2018-11-05T03:12:08.264Z,14.03
2018-11-05T03:14:36.469Z,12.33
2018-11-05T03:17:05.134Z,16.02
2018-11-05T03:19:33.246Z,11.88
2018-11-05T03:22:01.434Z,13.80
2018-11-05T03:24:29.618Z,13.28
2018-11-05T03:26:57.805Z,12.98
2018-11-05T03:29:26.015Z,15.55
2018-11-05T03:31:54.186Z,16.07
2018-11-05T03:34:22.392Z,12.30
2018-11-05T03:36:50.559Z,16.93
2018-11-05T03:39:18.746Z,17.55
2018-11-05T03:41:46.927Z,14.38
2018-11-05T03:44:15.123Z,16.52
2018-11-05T03:46:43.311Z,12.82
2018-11-05T03:49:11.501Z,14.83
2018-11-05T03:51:39.670Z,14.10
2018-11-05T03:54:08.397Z,15.40
2018-11-05T03:56:36.666Z,12.18
2018-11-05T03:59:04.982Z,14.15
2018-11-05T04:01:33.174Z,14.65
2018-11-05T04:04:01.364Z,13.05
2018-11-05T04:06:29.534Z,13.85
2018-11-05T04:08:57.718Z,15.38
2018-11-05T04:11:25.915Z,13.13
2018-11-05T04:13:54.107Z,16.57
2018-11-05T04:16:22.202Z,16.07
2018-11-05T04:18:50.347Z,13.35
2018-11-05T04:21:18.546Z,15.55
2018-11-05T04:23:46.727Z,15.43
2018-11-05T04:26:14.917Z,12.35
2018-11-05T04:28:43.102Z,15.25
2018-11-05T04:31:11.401Z,13.08
2018-11-05T04:33:39.582Z,15.03
2018-11-05T04:36:07.762Z,16.97
2018-11-05T04:38:35.951Z,16.73
2018-11-05T04:41:04.142Z,15.28
2018-11-05T04:43:32.326Z,14.70
2018-11-05T04:46:00.514Z,15.13
2018-11-05T04:48:28.686Z,14.95
2018-11-05T04:50:56.901Z,16.05
2018-11-05T04:53:25.062Z,16.57
2018-11-05T04:55:53.257Z,15.93
2018-11-05T04:58:21.438Z,13.72
2018-11-05T05:00:49.633Z,12.65
2018-11-05T05:03:17.835Z,14.03
2018-11-05T05:05:46.009Z,15.58
2018-11-05T05:08:14.190Z,14.28
2018-11-05T05:10:42.390Z,15.75
2018-11-05T05:13:10.553Z,15.20
2018-11-05T05:15:38.758Z,19.25
2018-11-05T05:18:06.935Z,14.38
2018-11-05T05:20:35.133Z,13.20
2018-11-05T05:23:03.520Z,14.85
2018-11-05T05:25:31.600Z,15.75
2018-11-05T05:27:59.682Z,15.90
2018-11-05T05:30:27.883Z,15.13
2018-11-05T05:32:56.094Z,14.63
2018-11-05T05:35:24.251Z,15.53
2018-11-05T05:37:52.432Z,15.48
2018-11-05T05:40:20.636Z,16.23
2018-11-05T05:42:48.808Z,15.43
2018-11-05T05:45:17.000Z,18.48
2018-11-05T05:47:45.193Z,14.43
2018-11-05T05:50:15.368Z,16.07
2018-11-05T05:52:44.658Z,19.85
2018-11-05T05:55:13.770Z,17.73
2018-11-05T05:57:42.059Z,17.32
2018-11-05T06:00:12.083Z,15.63
2018-11-05T06:02:40.269Z,16.27
2018-11-05T06:05:09.573Z,17.95
2018-11-05T06:07:38.074Z,17.15
2018-11-05T06:10:06.531Z,18.23
2018-11-05T06:12:34.633Z,16.30
2018-11-05T06:15:02.938Z,16.27
2018-11-05T06:17:31.238Z,15.70
2018-11-05T06:19:59.394Z,18.27
2018-11-05T06:22:27.588Z,19.57
2018-11-05T06:24:55.758Z,15.35
2018-11-05T06:27:23.959Z,23.95
2018-11-05T06:29:52.135Z,18.60
2018-11-05T06:32:20.250Z,22.27
2018-11-05T06:34:48.410Z,20.25
2018-11-05T06:37:16.625Z,15.38
2018-11-05T06:39:44.786Z,19.02
2018-11-05T06:42:12.994Z,16.93
2018-11-05T06:44:41.192Z,21.48
2018-11-05T06:47:09.359Z,20.23
2018-11-05T06:49:37.538Z,17.90
2018-11-05T06:52:05.717Z,21.77
2018-11-05T06:54:33.950Z,18.82
2018-11-05T06:57:02.108Z,17.92
2018-11-05T06:59:30.486Z,22.42
2018-11-05T07:01:58.680Z,20.15
2018-11-05T07:04:26.869Z,20.08
2018-11-05T07:06:55.050Z,22.45
2018-11-05T07:09:23.257Z,21.27
2018-11-05T07:11:51.438Z,19.48
2018-11-05T07:14:19.641Z,20.80
2018-11-05T07:16:47.825Z,22.45
2018-11-05T07:19:16.171Z,16.75
2018-11-05T07:21:44.198Z,17.87
2018-11-05T07:24:12.713Z,22.17
2018-11-05T07:26:41.030Z,19.57
2018-11-05T07:29:09.170Z,17.50
2018-11-05T07:31:37.341Z,18.50
2018-11-05T07:34:05.729Z,19.92
2018-11-05T07:36:33.730Z,9.03
2018-11-05T07:39:01.942Z,9.08
2018-11-05T07:41:30.086Z,9.08
2018-11-05T07:43:58.202Z,13.60
2018-11-05T07:46:26.358Z,12.15
2018-11-05T07:48:54.557Z,13.35
2018-11-05T07:51:22.736Z,16.35
2018-11-05T07:53:50.999Z,19.30
2018-11-05T07:56:19.220Z,21.27
2018-11-05T07:58:47.297Z,23.80
2018-11-05T08:01:15.482Z,21.10
2018-11-05T08:03:43.971Z,18.32
2018-11-05T08:06:12.182Z,22.58
2018-11-05T08:08:40.358Z,22.98
2018-11-05T08:11:08.542Z,19.60
2018-11-05T08:13:36.646Z,20.35
2018-11-05T08:16:04.973Z,24.05
2018-11-05T08:18:33.113Z,23.92
2018-11-05T08:21:01.294Z,26.25
2018-11-05T08:23:29.490Z,30.72
2018-11-05T08:25:57.670Z,27.98
2018-11-05T08:28:25.857Z,25.45
2018-11-05T08:30:53.950Z,23.62
2018-11-05T08:33:22.130Z,30.37
2018-11-05T08:35:50.430Z,26.50
2018-11-05T08:38:18.610Z,25.40
2018-11-05T08:40:46.844Z,27.87
2018-11-05T08:43:14.994Z,30.02
2018-11-05T08:45:43.146Z,25.82
2018-11-05T08:48:11.557Z,29.55
2018-11-05T08:50:39.777Z,31.10
2018-11-05T08:53:07.918Z,26.27
2018-11-05T08:55:36.050Z,31.85
2018-11-05T08:58:04.222Z,28.27
2018-11-05T09:00:37.798Z,32.80
2018-11-05T09:03:06.151Z,35.03
2018-11-05T09:05:34.303Z,30.80
2018-11-05T09:08:02.487Z,29.75
2018-11-05T09:10:30.953Z,27.82
2018-11-05T09:12:58.958Z,34.85
2018-11-05T09:15:27.140Z,28.98
2018-11-05T09:17:55.326Z,30.75
2018-11-05T09:20:23.426Z,36.15
2018-11-05T09:22:52.106Z,32.13
2018-11-05T09:25:20.414Z,33.30
2018-11-05T09:27:48.565Z,32.38
2018-11-05T09:30:18.218Z,30.60
2018-11-05T09:32:46.809Z,33.70
2018-11-05T09:35:15.106Z,35.92
2018-11-05T09:37:43.273Z,33.85
2018-11-05T09:40:14.699Z,32.08
2018-11-05T09:42:43.364Z,31.75
2018-11-05T09:45:16.849Z,31.42
2018-11-05T09:47:45.764Z,34.92
2018-11-05T09:50:14.263Z,33.05
2018-11-05T09:52:42.430Z,34.70
2018-11-05T09:55:11.557Z,33.98
2018-11-05T09:57:39.939Z,33.65
2018-11-05T10:00:10.983Z,31.52
2018-11-05T10:02:44.711Z,36.75
2018-11-05T10:05:13.525Z,32.17
2018-11-05T10:07:41.654Z,38.50
2018-11-05T10:10:10.826Z,34.18
2018-11-05T10:12:39.290Z,42.05
2018-11-05T10:15:08.399Z,35.33
2018-11-05T10:17:37.010Z,30.17
2018-11-05T10:20:07.302Z,37.67
2018-11-05T10:22:35.591Z,39.27
2018-11-05T10:25:04.182Z,34.88
2018-11-05T10:27:32.135Z,31.25
2018-11-05T10:30:00.295Z,31.30
2018-11-05T10:32:28.411Z,31.45
2018-11-05T10:34:56.563Z,34.98
2018-11-05T10:37:24.758Z,38.02
2018-11-05T10:39:52.931Z,32.75
2018-11-05T10:42:21.145Z,36.53
2018-11-05T10:44:49.306Z,34.95
2018-11-05T10:47:17.503Z,31.17
2018-11-05T10:49:45.694Z,34.20
2018-11-05T10:52:14.032Z,34.20
2018-11-05T10:54:42.012Z,33.42
2018-11-05T10:57:10.150Z,35.50
2018-11-05T10:59:38.323Z,33.88
2018-11-05T11:02:11.986Z,28.40
2018-11-05T11:04:40.122Z,30.50
2018-11-05T11:07:08.321Z,29.72
2018-11-05T11:09:36.601Z,28.00
2018-11-05T11:12:05.204Z,37.58
2018-11-05T11:14:33.407Z,30.88
2018-11-05T11:17:01.595Z,30.90
2018-11-05T11:19:29.774Z,33.83
2018-11-05T11:21:57.886Z,31.70
2018-11-05T11:24:26.035Z,29.40
2018-11-05T11:26:54.225Z,30.95
2018-11-05T11:29:22.514Z,34.98
2018-11-05T11:31:50.598Z,31.48
2018-11-05T11:34:18.774Z,34.60
2018-11-05T11:36:47.113Z,35.38
2018-11-05T11:39:15.166Z,30.48
2018-11-05T11:41:43.364Z,31.68
2018-11-05T11:44:11.679Z,32.98
2018-11-05T11:46:39.822Z,37.93
2018-11-05T11:49:09.034Z,30.50
2018-11-05T11:51:37.213Z,31.95
2018-11-05T11:54:05.734Z,30.65
2018-11-05T11:56:33.897Z,32.83
2018-11-05T11:59:02.094Z,33.60
2018-11-05T12:01:30.272Z,29.15
2018-11-05T12:03:58.479Z,32.73
2018-11-05T12:06:26.565Z,31.52
2018-11-05T12:08:54.743Z,33.70
2018-11-05T12:11:22.928Z,31.95
2018-11-05T12:13:51.122Z,32.30
2018-11-05T12:16:19.290Z,32.00
2018-11-05T12:18:47.482Z,34.13
2018-11-05T12:21:15.662Z,29.00
2018-11-05T12:23:43.849Z,27.27
2018-11-05T12:26:12.059Z,35.45
2018-11-05T12:28:40.283Z,30.15
2018-11-05T12:31:08.430Z,27.70
2018-11-05T12:33:36.607Z,30.48
2018-11-05T12:36:04.815Z,30.62
2018-11-05T12:38:33.095Z,29.42
2018-11-05T12:41:01.263Z,27.98
2018-11-05T12:43:29.469Z,27.15
2018-11-05T12:45:57.643Z,29.67
2018-11-05T12:48:25.847Z,30.15
2018-11-05T12:50:54.028Z,30.77
2018-11-05T12:53:22.222Z,31.42
2018-11-05T12:55:50.387Z,35.08
2018-11-05T12:58:18.566Z,29.12
2018-11-05T13:00:46.754Z,29.57
2018-11-05T13:03:14.946Z,32.13
2018-11-05T13:05:43.125Z,31.55
2018-11-05T13:08:11.338Z,29.40
2018-11-05T13:10:39.493Z,31.93
2018-11-05T13:13:07.753Z,30.82
2018-11-05T13:15:35.878Z,27.40
2018-11-05T13:18:04.065Z,17.77
2018-11-05T13:20:32.246Z,23.20
2018-11-05T13:23:00.438Z,23.47
2018-11-05T13:25:28.629Z,25.48
2018-11-05T13:27:56.814Z,27.52
2018-11-05T13:30:25.011Z,26.48
2018-11-05T13:32:53.194Z,27.65
2018-11-05T13:35:22.003Z,27.62
2018-11-05T13:37:50.762Z,22.80
2018-11-05T13:40:19.806Z,24.72
2018-11-05T13:42:48.493Z,28.17
2018-11-05T13:45:17.148Z,25.05
2018-11-05T13:47:45.986Z,29.00
2018-11-05T13:50:14.026Z,25.37
2018-11-05T13:52:42.392Z,30.20
2018-11-05T13:55:13.230Z,25.02
2018-11-05T13:57:42.651Z,27.02
2018-11-05T14:00:12.570Z,25.10
2018-11-05T14:02:40.854Z,27.40
2018-11-05T14:05:09.978Z,27.30
2018-11-05T14:07:38.345Z,28.02
2018-11-05T14:10:12.186Z,26.33
2018-11-05T14:12:40.596Z,30.43
2018-11-05T14:15:08.863Z,28.47
2018-11-05T14:17:37.354Z,27.42
2018-11-05T14:20:06.314Z,27.77
2018-11-05T14:22:34.430Z,25.37
2018-11-05T14:25:02.638Z,30.00
2018-11-05T14:27:31.121Z,29.20
2018-11-05T14:29:59.506Z,26.15
2018-11-05T14:32:27.277Z,28.92
2018-11-05T14:34:55.477Z,24.95
2018-11-05T14:37:23.661Z,30.25
2018-11-05T14:39:51.865Z,23.22
2018-11-05T14:42:20.042Z,25.32
2018-11-05T14:44:48.239Z,26.25
2018-11-05T14:47:16.402Z,24.75
2018-11-05T14:49:44.606Z,30.92
2018-11-05T14:52:12.810Z,27.62
2018-11-05T14:54:40.966Z,28.38
2018-11-05T14:57:09.615Z,31.55
2018-11-05T14:59:37.759Z,31.00
2018-11-05T15:02:11.302Z,31.68
2018-11-05T15:04:39.546Z,28.80
2018-11-05T15:07:08.087Z,28.95
2018-11-05T15:09:36.234Z,29.48
2018-11-05T15:12:04.433Z,27.55
2018-11-05T15:14:32.650Z,33.28
2018-11-05T15:17:00.802Z,28.17
2018-11-05T15:19:29.525Z,26.42
2018-11-05T15:21:57.185Z,23.83
2018-11-05T15:24:25.366Z,22.73
2018-11-05T15:26:53.620Z,25.05
2018-11-05T15:29:21.739Z,26.02
2018-11-05T15:31:50.950Z,23.20
2018-11-05T15:34:19.131Z,25.35
2018-11-05T15:36:47.371Z,24.92
2018-11-05T15:39:15.502Z,26.73
2018-11-05T15:41:43.715Z,23.85
2018-11-05T15:44:11.887Z,30.72
2018-11-05T15:46:40.083Z,27.42
2018-11-05T15:49:08.260Z,26.25
2018-11-05T15:51:36.674Z,29.42
2018-11-05T15:54:04.767Z,25.88
2018-11-05T15:56:32.823Z,27.77
2018-11-05T15:59:01.002Z,27.07
2018-11-05T16:01:29.190Z,26.02
2018-11-05T16:03:57.386Z,23.62
2018-11-05T16:06:25.579Z,24.63
2018-11-05T16:08:53.737Z,21.52
2018-11-05T16:11:21.947Z,23.85
2018-11-05T16:13:50.049Z,29.65
2018-11-05T16:16:18.298Z,21.97
2018-11-05T16:18:46.493Z,24.75
2018-11-05T16:21:14.688Z,24.60
2018-11-05T16:23:42.946Z,30.62
2018-11-05T16:26:11.046Z,27.70
2018-11-05T16:28:39.230Z,24.80
2018-11-05T16:31:07.406Z,31.27
2018-11-05T16:33:35.651Z,25.57
2018-11-05T16:36:03.823Z,23.85
2018-11-05T16:38:32.026Z,27.55
2018-11-05T16:41:00.155Z,27.67
2018-11-05T16:43:28.360Z,28.85
2018-11-05T16:45:56.534Z,27.50
2018-11-05T16:48:24.721Z,31.40
2018-11-05T16:50:52.898Z,29.12
2018-11-05T16:53:21.103Z,28.27
2018-11-05T16:55:49.278Z,32.63
2018-11-05T16:58:17.479Z,26.52
2018-11-05T17:00:45.793Z,24.40
2018-11-05T17:03:13.963Z,24.18
2018-11-05T17:05:42.025Z,29.65
2018-11-05T17:08:10.227Z,29.98
2018-11-05T17:10:38.401Z,33.98
2018-11-05T17:13:06.632Z,28.73
2018-11-05T17:15:34.769Z,24.32
2018-11-05T17:18:02.979Z,27.65
2018-11-05T17:20:31.146Z,28.55
2018-11-05T17:22:59.355Z,25.08
2018-11-05T17:25:27.518Z,27.58
2018-11-05T17:27:55.698Z,27.62
2018-11-05T17:30:23.906Z,34.67
2018-11-05T17:32:52.106Z,31.82
2018-11-05T17:35:20.398Z,29.23
2018-11-05T17:37:48.879Z,27.75
2018-11-05T17:40:18.656Z,29.02
2018-11-05T17:42:46.685Z,28.57
2018-11-05T17:45:16.129Z,27.15
2018-11-05T17:47:44.403Z,29.45
2018-11-05T17:50:14.541Z,28.77
2018-11-05T17:52:43.132Z,28.95
2018-11-05T17:55:11.942Z,31.77
2018-11-05T17:57:40.839Z,27.98
2018-11-05T18:00:11.591Z,28.32
2018-11-05T18:02:39.749Z,25.27
2018-11-05T18:05:07.939Z,30.17
2018-11-05T18:07:36.114Z,25.30
2018-11-05T18:10:05.429Z,22.67
2018-11-05T18:12:33.670Z,25.80
2018-11-05T18:15:02.044Z,28.98
2018-11-05T18:17:30.217Z,30.88
2018-11-05T18:19:58.410Z,27.93
2018-11-05T18:22:26.809Z,33.67
2018-11-05T18:24:54.999Z,30.02
2018-11-05T18:27:23.161Z,35.40
2018-11-05T18:29:51.369Z,31.95
2018-11-05T18:32:20.578Z,30.62
2018-11-05T18:34:50.848Z,33.18
2018-11-05T18:37:18.995Z,30.05
2018-11-05T18:39:47.569Z,30.32
2018-11-05T18:42:15.801Z,30.88
2018-11-05T18:44:43.966Z,32.17
2018-11-05T18:47:12.164Z,29.32
2018-11-05T18:49:40.356Z,33.00
2018-11-05T18:52:09.550Z,38.40
2018-11-05T18:54:38.254Z,39.53
2018-11-05T18:57:06.733Z,225.40
2018-11-05T18:59:34.926Z,128.02
2018-11-05T19:02:03.427Z,63.38
2018-11-05T19:04:31.610Z,159.65
2018-11-05T19:06:59.804Z,63.02
2018-11-05T19:09:27.994Z,62.93
2018-11-05T19:11:56.170Z,73.92
2018-11-05T19:14:24.355Z,58.25
2018-11-05T19:16:52.526Z,53.05
2018-11-05T19:19:20.707Z,50.33
2018-11-05T19:21:49.361Z,50.08
2018-11-05T19:24:17.662Z,49.90
2018-11-05T19:26:45.709Z,45.17
2018-11-05T19:29:13.882Z,39.55
2018-11-05T19:31:42.066Z,34.92
2018-11-05T19:34:10.353Z,35.65
2018-11-05T19:36:38.451Z,34.08
2018-11-05T19:39:08.598Z,34.40
2018-11-05T19:41:36.775Z,36.68
2018-11-05T19:44:05.312Z,33.83
2018-11-05T19:46:33.439Z,35.50
2018-11-05T19:49:01.610Z,38.30
2018-11-05T19:51:30.034Z,43.00
2018-11-05T19:53:58.203Z,37.93
2018-11-05T19:56:26.432Z,38.85
2018-11-05T19:58:54.558Z,44.70
2018-11-05T20:01:22.883Z,44.18
2018-11-05T20:03:51.099Z,49.08
2018-11-05T20:06:19.407Z,44.83
2018-11-05T20:08:47.517Z,46.23
2018-11-05T20:11:15.842Z,45.83
2018-11-05T20:13:43.999Z,46.65
2018-11-05T20:16:12.285Z,46.37
2018-11-05T20:18:40.981Z,44.53
2018-11-05T20:21:09.073Z,45.58
2018-11-05T20:23:37.254Z,40.15
2018-11-05T20:26:05.461Z,41.55
2018-11-05T20:28:33.715Z,38.28
2018-11-05T20:31:01.978Z,40.98
2018-11-05T20:33:30.075Z,38.85
2018-11-05T20:35:58.185Z,43.78
2018-11-05T20:38:26.386Z,41.92
2018-11-05T20:40:54.587Z,47.27
2018-11-05T20:43:22.753Z,40.12
2018-11-05T20:45:50.939Z,37.20
2018-11-05T20:48:19.138Z,37.55
2018-11-05T20:50:47.306Z,37.95
2018-11-05T20:53:15.557Z,36.55
2018-11-05T20:55:43.690Z,35.00
2018-11-05T20:58:11.986Z,32.53
2018-11-05T21:00:40.161Z,38.90
2018-11-05T21:03:08.353Z,37.35
2018-11-05T21:05:36.533Z,35.10
2018-11-05T21:08:04.805Z,33.88
2018-11-05T21:10:32.910Z,33.75
2018-11-05T21:13:01.117Z,36.90
2018-11-05T21:15:29.305Z,37.88
2018-11-05T21:17:57.576Z,37.73
2018-11-05T21:20:25.681Z,38.88
2018-11-05T21:22:54.148Z,38.58
2018-11-05T21:25:22.058Z,33.90
2018-11-05T21:27:50.252Z,34.40
2018-11-05T21:30:20.593Z,33.58
2018-11-05T21:32:48.787Z,36.68
2018-11-05T21:35:18.178Z,33.35
2018-11-05T21:37:46.362Z,32.00
2018-11-05T21:40:15.678Z,32.90
2018-11-05T21:42:43.858Z,29.50
2018-11-05T21:45:13.173Z,33.55
2018-11-05T21:47:41.886Z,30.80
2018-11-05T21:50:11.899Z,33.92
2018-11-05T21:52:40.757Z,30.55
2018-11-05T21:55:09.138Z,29.55
2018-11-05T21:57:38.818Z,28.75
2018-11-05T22:00:10.666Z,32.48
2018-11-05T22:02:44.180Z,28.87
2018-11-05T22:05:12.524Z,36.93
2018-11-05T22:07:40.661Z,35.35
2018-11-05T22:10:09.185Z,27.52
2018-11-05T22:12:37.340Z,32.20
2018-11-05T22:15:05.862Z,28.95
2018-11-05T22:17:34.350Z,32.95
2018-11-05T22:20:02.802Z,26.90
2018-11-05T22:22:30.952Z,32.08
2018-11-05T22:24:59.550Z,31.50
2018-11-05T22:27:28.003Z,30.25
2018-11-05T22:29:56.528Z,26.23
2018-11-05T22:32:24.703Z,30.85
2018-11-05T22:34:52.886Z,30.90
2018-11-05T22:37:21.464Z,29.25
2018-11-05T22:39:49.595Z,28.45
2018-11-05T22:42:17.763Z,26.17
2018-11-05T22:44:45.946Z,30.05
2018-11-05T22:47:14.169Z,28.52
2018-11-05T22:49:42.367Z,33.98
2018-11-05T22:52:10.507Z,29.37
2018-11-05T22:54:38.807Z,29.67
2018-11-05T22:57:07.189Z,31.87
2018-11-05T22:59:35.378Z,29.77
2018-11-05T23:02:03.564Z,27.42
2018-11-05T23:04:31.828Z,29.87
2018-11-05T23:06:59.925Z,28.95
2018-11-05T23:09:28.119Z,29.27
2018-11-05T23:11:56.302Z,26.80
2018-11-05T23:14:24.504Z,32.38
2018-11-05T23:16:52.682Z,34.55
2018-11-05T23:19:20.886Z,32.30
2018-11-05T23:21:49.058Z,31.02
2018-11-05T23:24:17.250Z,37.67
2018-11-05T23:26:45.426Z,38.15
2018-11-05T23:29:13.614Z,47.55
2018-11-05T23:31:41.998Z,47.58
2018-11-05T23:34:10.194Z,46.65
2018-11-05T23:36:38.302Z,52.35
2018-11-05T23:39:08.627Z,52.88
2018-11-05T23:41:37.111Z,53.48
2018-11-05T23:44:05.356Z,53.42
2018-11-05T23:46:33.483Z,51.85
2018-11-05T23:49:01.991Z,56.50
2018-11-05T23:51:30.200Z,57.85
2018-11-05T23:53:58.358Z,60.30
2018-11-05T23:56:26.534Z,51.33
2018-11-05T23:58:54.736Z,57.05
